Terminal Aerodrome Forecast
Issued by NWS Portland, OR

Home | Current Version | Previous Version | Text Only | Print | Product List | Glossary On
Versions: 1 2 3 4 5 6 7 8 9 10 11 12 13 14 15 16
000
FTUS46 KPQR 220520
TAFSLE
TAF
KSLE 220520Z 2206/2306 00000KT P6SM SCT040 BKN080
     FM221500 00000KT P6SM BKN015 OVC035
     FM221800 36005KT P6SM SCT020 BKN045
     FM222000 01005KT P6SM SCT040=

USA.gov is the U.S. government's official web portal to all federal, state and local government web resources and services.